Time;durP1;ratioP1;P1;durP2;ratioP2;P2;SDS_P1;SDS_P2;PMS_P1;PMS_P2;Temp;Humidity;BMP_temperature;BMP_pressure;BME280_temperature;BME280_humidity;BME280_pressure;Samples;Min_cycle;Max_cycle;Signal;HPM_P1;HPM_P2
2022/03/27 00:01:35;;;;;;;11.48;8.23;;;18.70;52.50;;;;;;4992109;28;20026;-72
2022/03/27 00:04:01;;;;;;;12.40;7.35;;;18.70;52.50;;;;;;4991595;28;20030;-74
2022/03/27 00:06:27;;;;;;;12.63;8.52;;;18.70;52.50;;;;;;4974797;28;20026;-74
2022/03/27 00:08:53;;;;;;;12.18;8.00;;;18.70;52.60;;;;;;4990968;28;20098;-73
2022/03/27 00:11:27;;;;;;;11.57;7.78;;;18.70;52.50;;;;;;4992461;28;20030;-73
2022/03/27 00:13:59;;;;;;;8.90;6.85;;;18.70;52.50;;;;;;4992314;28;20025;-73
2022/03/27 00:16:26;;;;;;;11.23;7.75;;;18.70;52.60;;;;;;4992538;28;20034;-74
2022/03/27 00:18:51;;;;;;;9.75;7.97;;;18.70;52.60;;;;;;4992060;28;20030;-73
2022/03/27 00:21:17;;;;;;;10.90;7.68;;;18.70;52.60;;;;;;4990603;28;20042;-74
2022/03/27 00:23:43;;;;;;;12.80;9.27;;;18.70;52.50;;;;;;4992005;28;20030;-73
2022/03/27 00:26:12;;;;;;;12.48;8.00;;;18.70;52.90;;;;;;4986520;28;20033;-75
2022/03/27 00:28:37;;;;;;;9.20;7.30;;;18.60;52.80;;;;;;4988623;28;20038;-73
2022/03/27 00:31:06;;;;;;;10.18;7.90;;;18.60;52.60;;;;;;4987764;28;20033;-73
2022/03/27 00:33:32;;;;;;;10.55;7.32;;;18.60;52.70;;;;;;4964694;28;20027;-72
2022/03/27 00:36:00;;;;;;;11.52;8.60;;;18.60;52.80;;;;;;4989622;28;20026;-73
2022/03/27 00:38:26;;;;;;;12.35;7.93;;;18.70;52.80;;;;;;4989101;28;20081;-72
2022/03/27 00:40:53;;;;;;;12.32;7.82;;;18.60;52.90;;;;;;4968634;28;20042;-70
2022/03/27 00:43:20;;;;;;;10.68;7.20;;;18.60;52.90;;;;;;4983463;28;20050;-71
2022/03/27 00:45:46;;;;;;;9.93;7.30;;;18.60;52.90;;;;;;4987388;28;20022;-72
2022/03/27 00:48:20;;;;;;;8.18;6.82;;;18.60;52.90;;;;;;4990916;28;20026;-72
2022/03/27 00:50:50;;;;;;;9.38;6.20;;;18.60;52.90;;;;;;4959225;28;20166;-71
2022/03/27 00:53:16;;;;;;;10.23;7.07;;;18.60;52.90;;;;;;4990913;28;20113;-72
2022/03/27 00:55:44;;;;;;;9.13;6.40;;;18.60;52.90;;;;;;4991706;28;20041;-72
2022/03/27 00:58:10;;;;;;;8.98;6.13;;;18.60;53.00;;;;;;4991640;28;20486;-73
2022/03/27 01:00:39;;;;;;;9.98;7.35;;;18.60;53.00;;;;;;4991306;28;20053;-72
2022/03/27 01:03:25;;;;;;;9.43;7.07;;;18.60;53.00;;;;;;4991394;28;20102;-72
2022/03/27 01:05:52;;;;;;;12.60;6.90;;;18.60;53.00;;;;;;4991113;28;20046;-73
2022/03/27 01:11:14;;;;;;;8.60;6.15;;;18.50;53.00;;;;;;4993038;28;20504;-73
2022/03/27 01:13:53;;;;;;;9.55;6.55;;;18.60;53.10;;;;;;4995104;28;20030;-73
2022/03/27 01:16:31;;;;;;;7.60;6.10;;;18.60;53.10;;;;;;4994423;28;20156;-73
2022/03/27 01:18:58;;;;;;;8.50;5.80;;;18.60;53.10;;;;;;4995364;28;20076;-71
2022/03/27 01:21:24;;;;;;;9.45;6.50;;;18.50;53.00;;;;;;4995171;28;20023;-72
2022/03/27 01:23:50;;;;;;;7.82;5.88;;;18.50;53.00;;;;;;4994721;28;20049;-73
2022/03/27 01:26:16;;;;;;;8.60;6.10;;;18.50;53.00;;;;;;4994572;28;20069;-72
2022/03/27 01:28:42;;;;;;;6.80;5.70;;;18.50;53.00;;;;;;4994988;28;20022;-72
2022/03/27 01:31:08;;;;;;;8.07;5.82;;;18.50;53.00;;;;;;4995110;28;20077;-73
2022/03/27 01:33:34;;;;;;;10.55;6.78;;;18.50;53.00;;;;;;4994730;28;20092;-72
2022/03/27 01:36:00;;;;;;;7.53;6.13;;;18.50;53.00;;;;;;4995254;28;20030;-72
2022/03/27 01:38:27;;;;;;;8.75;6.43;;;18.50;53.00;;;;;;4994707;28;20034;-72
2022/03/27 01:40:53;;;;;;;6.85;4.70;;;18.50;53.50;;;;;;4994577;28;20037;-73
2022/03/27 01:43:18;;;;;;;10.95;5.90;;;18.50;53.00;;;;;;4994979;28;20479;-72
2022/03/27 01:45:44;;;;;;;10.63;6.47;;;18.50;53.00;;;;;;4994622;28;20030;-73
2022/03/27 01:48:10;;;;;;;7.35;5.75;;;18.40;53.00;;;;;;4994476;28;20030;-72
2022/03/27 01:50:36;;;;;;;9.68;5.82;;;18.40;53.00;;;;;;4976885;28;20398;-73
2022/03/27 01:53:02;;;;;;;7.72;5.93;;;18.40;53.00;;;;;;4994672;28;20548;-71
2022/03/27 01:55:28;;;;;;;6.38;4.72;;;18.40;53.00;;;;;;4994877;28;20061;-72
2022/03/27 01:57:54;;;;;;;8.05;5.40;;;18.40;53.00;;;;;;4994392;28;20022;-72
2022/03/27 02:00:19;;;;;;;7.88;5.70;;;18.40;53.00;;;;;;4994107;28;20084;-73
2022/03/27 02:02:46;;;;;;;8.63;6.22;;;18.40;53.00;;;;;;4994358;28;20026;-72
2022/03/27 02:05:11;;;;;;;7.10;5.95;;;18.40;53.00;;;;;;4994414;28;20568;-72
2022/03/27 02:07:39;;;;;;;8.40;5.75;;;18.40;53.00;;;;;;4976577;28;20030;-72
2022/03/27 02:10:05;;;;;;;6.70;4.95;;;18.40;53.00;;;;;;4994059;28;20034;-72
2022/03/27 02:12:35;;;;;;;9.10;5.80;;;18.40;53.00;;;;;;4993828;28;20612;-71
2022/03/27 02:15:03;;;;;;;9.55;5.78;;;18.40;53.00;;;;;;4994251;28;20050;-72
2022/03/27 02:17:29;;;;;;;7.63;5.35;;;18.40;53.00;;;;;;4993822;28;20033;-71
2022/03/27 02:19:55;;;;;;;6.88;5.13;;;18.40;53.00;;;;;;4993581;28;20050;-72
2022/03/27 02:22:20;;;;;;;7.55;5.22;;;18.40;53.00;;;;;;4993226;28;20026;-71
2022/03/27 02:24:46;;;;;;;7.05;5.20;;;18.40;53.00;;;;;;4993658;28;20041;-72
2022/03/27 02:27:12;;;;;;;7.72;5.65;;;18.40;53.00;;;;;;4976547;28;20385;-72
2022/03/27 02:29:37;;;;;;;6.82;5.40;;;18.30;52.90;;;;;;4993566;28;20027;-72
2022/03/27 02:32:05;;;;;;;8.07;5.53;;;18.40;53.00;;;;;;4993430;28;20383;-71
2022/03/27 02:34:30;;;;;;;6.43;5.18;;;18.30;52.90;;;;;;4992627;28;20026;-71
2022/03/27 02:36:57;;;;;;;6.70;5.63;;;18.30;52.90;;;;;;4994002;28;20524;-73
2022/03/27 02:39:22;;;;;;;7.25;5.18;;;18.30;53.00;;;;;;4993822;28;20104;-72
2022/03/27 02:41:48;;;;;;;6.57;5.40;;;18.30;53.00;;;;;;4975927;28;20502;-72
2022/03/27 02:44:14;;;;;;;6.38;5.30;;;18.30;53.00;;;;;;4993163;28;20027;-72
2022/03/27 02:46:40;;;;;;;6.35;5.30;;;18.30;53.00;;;;;;4961753;28;20073;-73
2022/03/27 02:49:06;;;;;;;6.40;4.55;;;18.30;53.00;;;;;;4975946;28;20026;-71
2022/03/27 02:51:31;;;;;;;6.57;5.00;;;18.30;53.00;;;;;;4992923;28;20045;-72
2022/03/27 02:53:57;;;;;;;7.10;5.20;;;18.30;53.10;;;;;;4976234;28;20026;-71
2022/03/27 02:56:23;;;;;;;6.72;5.40;;;18.30;53.10;;;;;;4992939;28;20030;-71
2022/03/27 02:58:48;;;;;;;7.32;5.53;;;18.30;53.10;;;;;;4993028;28;20074;-72
2022/03/27 03:01:14;;;;;;;6.47;4.82;;;18.30;53.10;;;;;;4975801;28;20033;-73
2022/03/27 03:03:42;;;;;;;6.05;4.82;;;18.30;53.10;;;;;;4992868;28;20109;-71
2022/03/27 03:06:09;;;;;;;7.28;4.97;;;18.30;53.10;;;;;;4992677;28;20564;-71
2022/03/27 03:08:40;;;;;;;6.50;5.00;;;18.20;53.10;;;;;;4992605;28;20398;-71
2022/03/27 03:11:06;;;;;;;6.45;5.05;;;18.20;53.00;;;;;;4993216;28;20030;-71
2022/03/27 03:13:32;;;;;;;7.15;4.63;;;18.20;53.10;;;;;;4992920;28;20037;-71
2022/03/27 03:15:58;;;;;;;6.45;4.43;;;18.20;53.10;;;;;;4993229;28;20470;-71
2022/03/27 03:18:28;;;;;;;7.13;4.80;;;18.20;53.00;;;;;;4992400;28;20033;-72
2022/03/27 03:20:54;;;;;;;7.20;4.65;;;18.20;53.10;;;;;;4992652;28;20034;-72
2022/03/27 03:23:19;;;;;;;6.78;5.22;;;18.20;53.10;;;;;;4992962;28;20022;-72
2022/03/27 03:25:45;;;;;;;7.82;4.93;;;18.20;53.10;;;;;;4992503;28;20486;-72
2022/03/27 03:28:11;;;;;;;6.18;4.18;;;18.20;53.10;;;;;;4992343;28;20023;-72
2022/03/27 03:30:36;;;;;;;5.82;4.60;;;18.20;53.10;;;;;;4992137;28;20022;-72
2022/03/27 03:33:03;;;;;;;6.50;5.10;;;18.20;53.10;;;;;;4992219;28;20054;-72
2022/03/27 03:35:28;;;;;;;6.82;5.20;;;18.20;53.10;;;;;;4992819;28;20032;-72
2022/03/27 03:37:54;;;;;;;7.63;4.13;;;18.20;53.10;;;;;;4992285;28;20105;-71
2022/03/27 03:40:20;;;;;;;6.60;4.53;;;18.20;53.10;;;;;;4991881;28;20042;-72
2022/03/27 03:42:45;;;;;;;6.13;4.20;;;18.10;53.10;;;;;;4992240;28;20038;-72
2022/03/27 03:45:11;;;;;;;5.30;4.47;;;18.10;53.10;;;;;;4992757;28;20030;-71
2022/03/27 03:47:37;;;;;;;6.97;4.63;;;18.10;53.10;;;;;;4975247;28;20038;-72
2022/03/27 03:50:03;;;;;;;7.43;4.45;;;18.10;53.10;;;;;;4992939;28;20026;-71
2022/03/27 03:52:29;;;;;;;6.55;4.40;;;18.10;53.20;;;;;;4992779;28;20505;-72
2022/03/27 03:54:55;;;;;;;6.53;4.78;;;18.10;53.20;;;;;;4992453;28;20022;-72
2022/03/27 03:57:20;;;;;;;7.05;4.30;;;18.10;53.20;;;;;;4992753;28;20038;-72
2022/03/27 03:59:46;;;;;;;4.60;3.58;;;18.10;53.20;;;;;;4991585;28;20122;-72
2022/03/27 04:02:13;;;;;;;5.80;4.30;;;18.10;53.20;;;;;;4992281;28;20023;-72
2022/03/27 04:04:39;;;;;;;5.93;4.25;;;18.10;53.20;;;;;;4992231;28;20033;-72
2022/03/27 04:07:05;;;;;;;5.72;4.20;;;18.10;53.20;;;;;;4974873;28;20041;-72
2022/03/27 04:09:31;;;;;;;6.07;4.72;;;18.10;53.20;;;;;;4992382;28;20037;-72
2022/03/27 04:11:57;;;;;;;7.38;4.50;;;18.10;53.20;;;;;;4992911;28;20110;-72
2022/03/27 04:14:23;;;;;;;6.22;4.38;;;18.10;53.20;;;;;;4992147;28;20034;-71
2022/03/27 04:16:48;;;;;;;6.07;4.57;;;18.10;53.20;;;;;;4992175;28;20026;-72
2022/03/27 04:19:14;;;;;;;5.80;4.65;;;18.00;53.10;;;;;;4992302;28;20517;-72
2022/03/27 04:21:41;;;;;;;6.22;4.38;;;18.10;53.20;;;;;;4992156;28;20497;-72
2022/03/27 04:24:09;;;;;;;5.25;4.00;;;18.10;53.20;;;;;;4974994;28;20018;-72
2022/03/27 04:26:35;;;;;;;6.18;4.85;;;18.00;53.10;;;;;;4991988;28;20040;-72
2022/03/27 04:29:05;;;;;;;5.00;4.47;;;18.00;53.20;;;;;;4991809;28;20030;-71
2022/03/27 04:31:31;;;;;;;7.03;4.40;;;18.00;53.20;;;;;;4992124;28;20030;-72
2022/03/27 04:33:57;;;;;;;5.22;4.13;;;18.00;53.20;;;;;;4992590;28;20046;-72
2022/03/27 04:36:22;;;;;;;6.22;4.60;;;18.00;53.20;;;;;;4992311;28;20073;-72
2022/03/27 04:38:48;;;;;;;5.45;4.10;;;18.00;53.20;;;;;;4991801;28;20037;-72
2022/03/27 04:41:13;;;;;;;5.05;4.10;;;18.00;53.20;;;;;;4992041;28;20038;-72
2022/03/27 04:43:39;;;;;;;5.10;4.05;;;18.00;53.20;;;;;;4991434;28;20057;-71
2022/03/27 04:46:07;;;;;;;4.35;3.58;;;18.00;53.20;;;;;;4991145;28;20080;-72
2022/03/27 04:48:32;;;;;;;5.45;4.32;;;18.00;53.20;;;;;;4991681;28;20454;-72
2022/03/27 04:50:58;;;;;;;5.03;3.78;;;17.90;53.20;;;;;;4992096;28;20109;-71
2022/03/27 04:53:23;;;;;;;5.60;4.20;;;18.00;53.20;;;;;;4991864;28;20029;-72
2022/03/27 04:55:49;;;;;;;5.32;4.07;;;18.00;53.20;;;;;;4974172;28;20080;-72
2022/03/27 04:58:16;;;;;;;6.00;4.18;;;18.00;53.20;;;;;;4991306;28;20030;-71
2022/03/27 05:00:43;;;;;;;4.47;3.80;;;17.90;53.20;;;;;;4991030;28;20140;-72
2022/03/27 05:03:08;;;;;;;4.85;3.55;;;17.90;53.20;;;;;;4991649;28;20077;-72
2022/03/27 05:05:34;;;;;;;5.72;3.88;;;17.90;53.20;;;;;;4991458;28;20034;-72
2022/03/27 05:08:00;;;;;;;5.88;3.90;;;17.90;53.20;;;;;;4991732;28;20043;-72
2022/03/27 05:10:26;;;;;;;6.20;3.95;;;17.90;53.20;;;;;;4991540;28;20022;-72
2022/03/27 05:12:52;;;;;;;5.18;4.15;;;17.90;53.20;;;;;;4991500;28;20029;-72
2022/03/27 05:15:18;;;;;;;4.93;3.85;;;17.90;53.20;;;;;;4991580;28;20470;-72
2022/03/27 05:17:53;;;;;;;4.35;3.95;;;17.90;53.20;;;;;;4991354;28;20029;-72
2022/03/27 05:20:18;;;;;;;4.20;2.97;;;17.90;53.20;;;;;;4991402;28;20498;-72
2022/03/27 05:22:44;;;;;;;5.57;3.75;;;17.90;53.30;;;;;;4991374;28;20046;-72
2022/03/27 05:25:12;;;;;;;5.00;3.88;;;17.90;53.20;;;;;;4991000;28;20026;-72
2022/03/27 05:27:53;;;;;;;4.88;3.83;;;17.90;53.20;;;;;;4991336;28;20090;-72
2022/03/27 05:30:21;;;;;;;5.00;3.85;;;17.90;53.80;;;;;;4991589;28;20046;-73
2022/03/27 05:32:48;;;;;;;5.38;4.18;;;17.90;53.30;;;;;;4973871;28;20030;-72
2022/03/27 05:35:15;;;;;;;4.05;3.17;;;17.90;53.30;;;;;;4991512;28;20033;-72
2022/03/27 05:37:43;;;;;;;4.65;3.33;;;17.80;53.20;;;;;;4991153;28;20022;-72
2022/03/27 05:40:12;;;;;;;5.40;4.03;;;17.80;53.20;;;;;;4990089;28;20038;-72
2022/03/27 05:42:37;;;;;;;3.75;3.00;;;17.80;53.30;;;;;;4991243;28;20027;-72
2022/03/27 05:45:04;;;;;;;4.68;3.58;;;17.80;53.20;;;;;;4973870;28;20049;-71
2022/03/27 05:47:30;;;;;;;5.97;3.72;;;17.80;53.20;;;;;;4991684;28;20017;-70
2022/03/27 05:49:56;;;;;;;5.05;4.05;;;17.80;53.20;;;;;;4991702;28;20038;-72
2022/03/27 05:52:23;;;;;;;4.57;3.38;;;17.80;53.20;;;;;;4991170;28;20071;-73
2022/03/27 05:54:49;;;;;;;5.00;3.70;;;17.80;53.30;;;;;;4990640;28;20107;-72
2022/03/27 05:57:16;;;;;;;4.93;3.83;;;17.80;53.30;;;;;;4992745;28;20061;-72
2022/03/27 05:59:42;;;;;;;5.47;3.83;;;17.80;53.30;;;;;;4994615;28;20125;-71
2022/03/27 06:02:08;;;;;;;5.72;4.05;;;17.80;53.40;;;;;;4994891;28;20093;-72
2022/03/27 06:04:33;;;;;;;5.65;3.92;;;17.80;53.50;;;;;;4994744;28;20118;-72
2022/03/27 06:06:59;;;;;;;4.63;3.60;;;17.80;53.50;;;;;;4995128;28;20022;-71
2022/03/27 06:09:25;;;;;;;5.68;3.85;;;17.80;53.40;;;;;;4993952;28;20045;-71
2022/03/27 06:11:50;;;;;;;5.72;3.42;;;17.80;53.40;;;;;;4994477;28;20034;-71
2022/03/27 06:14:16;;;;;;;5.40;3.83;;;17.80;53.30;;;;;;4994214;28;20022;-72
2022/03/27 06:16:41;;;;;;;4.90;3.75;;;17.80;53.30;;;;;;4976408;28;20097;-71
2022/03/27 06:19:07;;;;;;;4.38;3.33;;;17.80;53.30;;;;;;4977132;28;20490;-71
2022/03/27 06:21:33;;;;;;;4.82;3.60;;;17.90;53.30;;;;;;4994024;28;20030;-71
2022/03/27 06:23:58;;;;;;;7.80;3.75;;;17.90;53.30;;;;;;4994751;28;20085;-72
2022/03/27 06:26:24;;;;;;;4.55;3.33;;;17.90;53.30;;;;;;4975751;28;20121;-71
2022/03/27 06:28:50;;;;;;;4.95;3.75;;;17.90;53.30;;;;;;4993565;28;20022;-73
2022/03/27 06:31:15;;;;;;;5.43;3.50;;;17.90;53.20;;;;;;4988105;28;20502;-71
2022/03/27 06:33:41;;;;;;;4.57;3.72;;;17.90;53.20;;;;;;4971731;28;20033;-71
2022/03/27 06:36:07;;;;;;;5.45;3.67;;;17.90;53.20;;;;;;4990113;28;20113;-71
2022/03/27 06:38:32;;;;;;;4.30;3.58;;;17.90;53.20;;;;;;4988460;28;20490;-72
2022/03/27 06:40:58;;;;;;;4.80;3.33;;;17.90;53.20;;;;;;4988263;28;20070;-71
2022/03/27 06:43:24;;;;;;;4.03;2.88;;;17.90;53.20;;;;;;4988552;28;20364;-71
2022/03/27 06:45:50;;;;;;;5.15;3.08;;;17.90;53.20;;;;;;4970278;28;20057;-71
2022/03/27 06:48:16;;;;;;;4.32;3.03;;;17.90;53.10;;;;;;4970101;28;20031;-70
2022/03/27 06:50:44;;;;;;;4.45;3.25;;;18.00;53.20;;;;;;4969641;28;20026;-70
2022/03/27 06:53:11;;;;;;;4.97;3.67;;;18.00;53.20;;;;;;4987663;28;20029;-70
2022/03/27 06:55:37;;;;;;;5.22;3.38;;;18.00;53.20;;;;;;4987250;28;20501;-70
2022/03/27 06:58:02;;;;;;;6.75;3.30;;;18.00;53.20;;;;;;4988297;28;20057;-72
2022/03/27 07:03:12;;;;;;;5.90;3.60;;;18.00;53.20;;;;;;4990384;28;20472;-71
2022/03/27 07:05:43;;;;;;;3.45;3.10;;;18.00;53.20;;;;;;4991821;28;20030;-71
2022/03/27 07:08:13;;;;;;;4.70;3.13;;;18.00;53.20;;;;;;4981262;28;20030;-71
2022/03/27 07:10:41;;;;;;;4.95;3.55;;;18.00;53.20;;;;;;4974017;28;20046;-71
2022/03/27 07:13:09;;;;;;;4.47;3.42;;;18.00;53.20;;;;;;4992629;28;20026;-72
2022/03/27 07:15:36;;;;;;;6.07;3.80;;;18.00;53.20;;;;;;4993278;28;20433;-71
2022/03/27 07:18:01;;;;;;;4.82;3.53;;;18.00;53.20;;;;;;4993264;28;20026;-71
2022/03/27 07:20:32;;;;;;;5.75;3.58;;;18.00;53.30;;;;;;4993665;28;20034;-71
2022/03/27 07:23:00;;;;;;;5.43;3.67;;;18.00;53.20;;;;;;4975947;28;20037;-71
2022/03/27 07:25:28;;;;;;;4.82;2.85;;;18.10;53.20;;;;;;4974080;28;20033;-70
2022/03/27 07:27:53;;;;;;;4.45;3.00;;;18.00;53.20;;;;;;4973712;28;20101;-71
2022/03/27 07:30:22;;;;;;;4.35;3.47;;;18.00;53.20;;;;;;4973640;28;20106;-71
2022/03/27 07:32:52;;;;;;;4.78;3.40;;;18.00;53.10;;;;;;4973253;28;20027;-71
2022/03/27 07:35:18;;;;;;;4.82;3.35;;;18.00;53.10;;;;;;4973903;28;20388;-71
2022/03/27 07:37:45;;;;;;;5.85;3.53;;;18.10;53.20;;;;;;4973359;28;20030;-72
2022/03/27 07:40:13;;;;;;;5.57;3.33;;;18.10;53.20;;;;;;4973538;28;20035;-72
2022/03/27 07:42:46;;;;;;;6.30;3.85;;;18.00;53.20;;;;;;4973071;28;20070;-72
2022/03/27 07:45:13;;;;;;;5.28;3.95;;;18.00;53.20;;;;;;4974040;28;20084;-72
2022/03/27 07:47:39;;;;;;;5.50;3.97;;;18.10;53.30;;;;;;4977829;28;20018;-71
2022/03/27 07:50:07;;;;;;;5.28;3.75;;;18.10;53.30;;;;;;4987501;28;20049;-72
2022/03/27 07:52:35;;;;;;;8.05;3.80;;;18.10;53.30;;;;;;4988309;28;20482;-71
2022/03/27 07:55:01;;;;;;;4.78;3.65;;;18.10;53.20;;;;;;4988584;28;20081;-74
2022/03/27 07:57:27;;;;;;;7.10;4.05;;;18.10;53.30;;;;;;4987850;28;20022;-74
2022/03/27 07:59:53;;;;;;;5.13;3.35;;;18.10;53.30;;;;;;4987038;28;20045;-72
2022/03/27 08:02:21;;;;;;;7.60;4.28;;;18.10;53.20;;;;;;4969482;28;20035;-72
2022/03/27 08:04:47;;;;;;;6.15;4.30;;;18.10;53.30;;;;;;4987429;28;20113;-72
2022/03/27 08:07:13;;;;;;;5.85;3.90;;;18.10;53.30;;;;;;4986545;28;20034;-71
2022/03/27 08:09:39;;;;;;;6.20;4.18;;;18.10;53.30;;;;;;4988432;28;20036;-72
2022/03/27 08:12:09;;;;;;;7.35;4.82;;;18.10;53.30;;;;;;4987682;28;20517;-72
2022/03/27 08:14:37;;;;;;;6.22;3.72;;;18.10;53.40;;;;;;4988954;28;20027;-72
2022/03/27 08:17:03;;;;;;;7.25;4.53;;;18.10;53.30;;;;;;4991714;28;20455;-72
2022/03/27 08:19:29;;;;;;;7.13;4.80;;;18.10;53.40;;;;;;4989942;28;20092;-72
2022/03/27 08:21:55;;;;;;;6.28;4.50;;;18.10;53.40;;;;;;4988971;28;20425;-73
2022/03/27 08:24:21;;;;;;;7.03;5.10;;;18.10;54.00;;;;;;4969562;28;20056;-73
2022/03/27 08:26:56;;;;;;;6.00;4.22;;;18.10;53.50;;;;;;4968714;28;20026;-73
2022/03/27 08:29:36;;;;;;;6.15;4.47;;;18.20;53.60;;;;;;4988687;28;20053;-73
2022/03/27 08:32:12;;;;;;;6.43;4.68;;;18.20;53.60;;;;;;4985650;28;20031;-70
2022/03/27 08:34:38;;;;;;;;;;;18.20;53.60;;;;;;4982327;28;20034;-72
2022/03/27 08:37:10;;;;;;;6.82;4.30;;;18.30;53.60;;;;;;4990634;28;19906;-74
2022/03/27 08:39:36;;;;;;;7.85;5.05;;;18.30;54.10;;;;;;4979839;28;20030;-73
2022/03/27 08:42:03;;;;;;;9.70;5.00;;;18.30;53.50;;;;;;4972513;28;20023;-73
2022/03/27 08:44:30;;;;;;;7.03;5.15;;;18.40;53.50;;;;;;4955230;28;20023;-73
2022/03/27 08:46:58;;;;;;;6.72;4.55;;;18.40;53.50;;;;;;4954754;28;20034;-73
2022/03/27 08:49:44;;;;;;;7.95;5.40;;;18.50;53.50;;;;;;4974840;28;20027;-71
2022/03/27 08:52:21;;;;;;;8.20;5.60;;;18.50;53.50;;;;;;4957772;28;20034;-72
2022/03/27 08:54:52;;;;;;;7.82;5.70;;;18.60;53.50;;;;;;4974153;28;20122;-72
2022/03/27 08:57:51;;;;;;;8.05;4.95;;;18.70;53.70;;;;;;4991872;28;20102;-71
2022/03/27 09:00:31;;;;;;;13.27;6.30;;;18.70;53.70;;;;;;4990699;28;20034;-71
2022/03/27 09:02:59;;;;;;;8.57;5.60;;;18.80;53.60;;;;;;4983234;28;20066;-72
2022/03/27 09:05:25;;;;;;;8.27;5.55;;;18.90;53.80;;;;;;4991733;28;20070;-72
2022/03/27 09:07:53;;;;;;;11.13;5.60;;;19.00;53.70;;;;;;4991417;28;20026;-73
2022/03/27 09:10:21;;;;;;;9.40;5.90;;;19.10;53.60;;;;;;4991755;28;20030;-73
2022/03/27 09:12:47;;;;;;;9.30;5.03;;;19.10;53.70;;;;;;4990897;28;20561;-73
2022/03/27 09:15:13;;;;;;;10.82;5.95;;;19.20;53.70;;;;;;4991682;28;20034;-72
2022/03/27 09:18:04;;;;;;;11.73;5.00;;;19.30;53.70;;;;;;4985109;28;20081;-72
2022/03/27 09:20:44;;;;;;;9.50;6.03;;;19.40;53.80;;;;;;4987627;28;20082;-72
2022/03/27 09:23:26;;;;;;;12.93;7.28;;;19.50;53.80;;;;;;4974470;28;20118;-74
2022/03/27 09:26:00;;;;;;;12.93;9.85;;;19.50;53.70;;;;;;4989099;28;20023;-73
2022/03/27 09:28:47;;;;;;;11.65;8.77;;;19.70;53.80;;;;;;4988143;28;20506;-72
2022/03/27 09:31:18;;;;;;;11.65;8.43;;;19.70;53.60;;;;;;4964673;28;20030;-73
2022/03/27 09:33:46;;;;;;;14.55;9.48;;;19.80;53.50;;;;;;4980990;28;20379;-72
2022/03/27 09:36:20;;;;;;;14.77;9.18;;;19.90;53.50;;;;;;4965328;28;20034;-72
2022/03/27 09:39:04;;;;;;;13.07;8.63;;;20.00;53.30;;;;;;4965115;28;20041;-72
2022/03/27 09:41:35;;;;;;;13.23;8.60;;;20.10;53.40;;;;;;4986342;28;20042;-72
2022/03/27 09:44:04;;;;;;;11.27;8.60;;;20.30;53.30;;;;;;4992898;28;20026;-72
2022/03/27 09:47:18;;;;;;;17.20;9.10;;;20.30;53.10;;;;;;4987557;28;20065;-71
2022/03/27 09:49:46;;;;;;;10.98;7.70;;;20.40;52.80;;;;;;4973439;28;20038;-71
2022/03/27 09:52:17;;;;;;;13.75;7.97;;;20.50;52.90;;;;;;4987702;28;20026;-71
2022/03/27 09:54:44;;;;;;;11.05;7.63;;;20.70;52.80;;;;;;4995372;28;20029;-71
2022/03/27 09:57:37;;;;;;;21.45;13.52;;;20.80;52.50;;;;;;4990248;28;20058;-72
2022/03/27 10:00:13;;;;;;;24.70;14.18;;;20.80;53.40;;;;;;4974119;28;20521;-71
2022/03/27 10:02:41;;;;;;;20.42;14.15;;;20.70;53.40;;;;;;4976033;28;20502;-72
2022/03/27 10:05:17;;;;;;;19.40;13.02;;;20.90;53.20;;;;;;4966177;28;20553;-72
2022/03/27 10:07:48;;;;;;;17.48;12.45;;;20.90;52.90;;;;;;4966793;28;20026;-72
2022/03/27 10:10:16;;;;;;;26.70;11.90;;;21.00;52.40;;;;;;4994824;28;20097;-73
2022/03/27 10:12:43;;;;;;;18.45;10.82;;;21.10;52.60;;;;;;4993347;28;20054;-73
2022/03/27 10:15:12;;;;;;;20.13;12.10;;;21.20;52.90;;;;;;4988626;28;20034;-73
2022/03/27 10:17:39;;;;;;;23.17;12.45;;;21.20;53.40;;;;;;4974931;28;20019;-73
2022/03/27 10:20:08;;;;;;;20.63;12.20;;;21.30;52.60;;;;;;4981054;28;20033;-73
2022/03/27 10:22:39;;;;;;;16.60;11.48;;;21.40;53.00;;;;;;4994242;28;20482;-76
2022/03/27 10:25:08;;;;;;;17.35;11.48;;;22.40;50.80;;;;;;4969924;28;20034;-76
2022/03/27 10:27:35;;;;;;;21.73;12.15;;;21.80;51.10;;;;;;4963093;28;20029;-77
2022/03/27 10:30:02;;;;;;;21.30;12.23;;;21.50;51.70;;;;;;4994542;28;20034;-76
2022/03/27 10:32:28;;;;;;;21.55;11.85;;;21.40;51.90;;;;;;4994615;28;20102;-76
2022/03/27 10:35:39;;;;;;;21.75;12.65;;;21.40;52.00;;;;;;4968755;28;20023;-75
2022/03/27 10:38:42;;;;;;;25.50;14.60;;;21.40;52.10;;;;;;4910514;29;20092;-75
2022/03/27 10:41:32;;;;;;;21.02;12.43;;;21.40;52.10;;;;;;4903981;29;20040;-78
2022/03/27 10:44:03;;;;;;;32.05;13.73;;;21.50;52.00;;;;;;4975802;28;20043;-76
2022/03/27 10:46:29;;;;;;;22.17;13.63;;;21.50;52.80;;;;;;4982786;28;20037;-77
2022/03/27 10:49:13;;;;;;;22.95;12.10;;;21.50;53.30;;;;;;4987752;28;20022;-77
2022/03/27 10:51:45;;;;;;;20.27;11.85;;;21.60;53.20;;;;;;4993420;28;20030;-78
2022/03/27 10:54:18;;;;;;;17.88;11.68;;;21.60;53.30;;;;;;4998410;28;20461;-77
2022/03/27 10:56:46;;;;;;;22.52;12.57;;;21.70;53.20;;;;;;4997394;28;20098;-78
2022/03/27 10:59:14;;;;;;;19.60;12.27;;;21.80;53.20;;;;;;4964231;28;20490;-78
2022/03/27 11:01:49;;;;;;;21.85;12.02;;;21.90;53.00;;;;;;4983338;28;20080;-78
2022/03/27 11:04:19;;;;;;;25.03;13.53;;;21.90;52.80;;;;;;4976662;28;20110;-81
2022/03/27 11:06:47;;;;;;;21.23;12.65;;;22.00;52.90;;;;;;4974079;28;20035;-79
2022/03/27 11:09:38;;;;;;;27.38;14.00;;;22.20;52.70;;;;;;4984407;28;20018;-78
2022/03/27 11:12:05;;;;;;;22.05;12.52;;;22.20;52.60;;;;;;4993669;28;20034;-78
2022/03/27 11:14:50;;;;;;;24.33;14.52;;;22.30;52.40;;;;;;4975907;28;20081;-77
2022/03/27 11:17:15;;;;;;;28.10;14.23;;;22.30;52.10;;;;;;4990070;28;20045;-78
2022/03/27 11:19:43;;;;;;;25.45;14.60;;;22.40;52.20;;;;;;4987293;28;20407;-79
2022/03/27 11:22:43;;;;;;;30.02;15.90;;;22.30;52.30;;;;;;4960842;28;20034;-79
2022/03/27 11:25:33;;;;;;;24.80;13.90;;;22.40;52.30;;;;;;4984642;28;20022;-80
2022/03/27 11:28:06;;;;;;;25.85;14.48;;;22.40;52.20;;;;;;4975971;28;20105;-79
2022/03/27 11:30:56;;;;;;;29.63;15.98;;;22.40;52.20;;;;;;4989761;28;20714;-78
2022/03/27 11:33:22;;;;;;;31.42;14.80;;;22.40;52.20;;;;;;4996464;28;20433;-79
2022/03/27 11:36:12;;;;;;;24.17;14.32;;;22.40;52.20;;;;;;5000735;28;20023;-79
2022/03/27 11:38:53;;;;;;;27.25;15.75;;;22.30;52.20;;;;;;5006878;28;20026;-79
2022/03/27 11:41:22;;;;;;;29.58;17.63;;;22.30;52.30;;;;;;4980680;28;20022;-78
2022/03/27 11:43:49;;;;;;;29.75;17.27;;;22.40;52.20;;;;;;5004060;28;20023;-79
2022/03/27 11:46:28;;;;;;;26.20;15.52;;;22.40;52.20;;;;;;4986284;28;20117;-79
2022/03/27 11:49:01;;;;;;;25.92;15.63;;;22.40;52.30;;;;;;4994885;28;20037;-81
2022/03/27 11:51:28;;;;;;;25.02;15.20;;;22.40;52.30;;;;;;4997454;28;20030;-80
2022/03/27 11:53:56;;;;;;;24.67;15.35;;;22.40;52.10;;;;;;5001630;28;20026;-78
2022/03/27 11:56:23;;;;;;;28.58;15.75;;;22.50;52.20;;;;;;4993821;28;20030;-78
2022/03/27 11:59:12;;;;;;;30.73;19.10;;;22.40;52.40;;;;;;5000354;28;20029;-77
2022/03/27 12:01:39;;;;;;;29.30;16.52;;;22.40;52.70;;;;;;4973440;28;20407;-78
2022/03/27 12:04:06;;;;;;;29.35;16.90;;;22.50;52.50;;;;;;4987299;28;20019;-78
2022/03/27 12:06:32;;;;;;;29.83;17.60;;;22.50;52.40;;;;;;4988381;28;20506;-78
2022/03/27 12:08:58;;;;;;;32.25;17.30;;;22.50;52.50;;;;;;4982707;28;20030;-79
2022/03/27 12:11:26;;;;;;;33.15;17.90;;;22.50;52.40;;;;;;5006906;28;20022;-79
2022/03/27 12:13:52;;;;;;;35.88;19.73;;;22.60;52.50;;;;;;4999934;28;20116;-79
2022/03/27 12:16:21;;;;;;;36.92;17.67;;;22.60;52.80;;;;;;4982138;28;20038;-78
2022/03/27 12:18:47;;;;;;;32.05;17.85;;;22.70;52.50;;;;;;5006992;28;20026;-77
2022/03/27 12:21:15;;;;;;;27.88;18.50;;;22.70;52.40;;;;;;4995010;28;20497;-78
2022/03/27 12:23:49;;;;;;;34.67;19.20;;;22.80;52.20;;;;;;5004346;28;20109;-77
2022/03/27 12:32:06;;;;;;;32.38;18.35;;;23.00;51.70;;;;;;5001332;28;20053;-79
2022/03/27 12:34:33;;;;;;;28.83;17.45;;;23.10;51.60;;;;;;4992481;28;20041;-76
2022/03/27 12:37:19;;;;;;;30.98;17.85;;;23.00;51.70;;;;;;5007716;28;20494;-77
2022/03/27 12:39:47;;;;;;;31.27;18.52;;;23.10;51.70;;;;;;4981117;28;20458;-75
2022/03/27 12:42:28;;;;;;;31.10;18.10;;;23.20;51.60;;;;;;5000536;28;20027;-78
2022/03/27 12:44:54;;;;;;;28.63;18.23;;;23.30;51.50;;;;;;5007275;28;20026;-78
2022/03/27 12:47:30;;;;;;;35.65;17.83;;;23.30;52.20;;;;;;4988692;28;20381;-80
2022/03/27 12:49:56;;;;;;;32.22;18.67;;;23.10;52.30;;;;;;4994330;28;20038;-78
2022/03/27 12:52:22;;;;;;;38.05;18.70;;;23.10;52.30;;;;;;4998718;28;20571;-79
2022/03/27 12:55:00;;;;;;;32.33;19.88;;;23.20;51.90;;;;;;4989337;28;20026;-79
2022/03/27 12:57:45;;;;;;;29.70;18.05;;;23.30;51.90;;;;;;4959643;28;20518;-75
2022/03/27 13:00:14;;;;;;;29.73;19.20;;;23.20;51.90;;;;;;4980608;28;20034;-77
2022/03/27 13:02:40;;;;;;;32.08;21.02;;;23.10;52.40;;;;;;4992168;28;20034;-78